Friday, November 28, 2014
19:20 UTC
  |  Log In   |  Register Free
Airport Search:

Orlando Sanford International Airport
(KSFB)

FAA data valid effective November 13, 2014 - January 08, 2015 (unless otherwise noted).

 
 
 
 
 
 
 
 
 
 
 
 
 
 

Current Aviation Weather for Orlando Sanford International Airport (KSFB)

The most recent METAR observation for KSFB was updated at: 1820
METAR Summary (Translated METAR)
KSFB
281753Z 01010KT 350V050 10SM CLR 16/05 A3029 RMK AO2 SLP256 T01560050 10161 20056 58017
KORL
281753Z 01006KT 10SM CLR 16/04 A3028 RMK AO2 SLP259 T01560044 10156 20061 58021
(14.8 nm SW from KSFB)
KDED
281855Z AUTO 02009G17KT 10SM CLR 15/05 A3028 RMK AO1
(17.6 nm NW from KSFB)
TAF Summary (Translated TAF)
KSFB
281738Z 2818/2918 02012KT P6SM SKC FM290000 36005KT P6SM SKC
  Airport Weather Conditions for KSFB

 Current Weather at SFB
60° F
Fair
North winds at 11.5 mph
SFB NOAA Radar

Pressure: 30.29 in
Humidity: 50%
Wind: North at 11.5 MPH (10 KT)
Dew Point: 41.0°F
Visibility: 10.00 mi


Airport Weather Forecast for KSFB

Translated METAR and TAF for KSFB
Translated METAR for KSFB (1915 UTC 28 November 2014)
found at http://aviationweather.gov/adds/metars/
 
METAR text: KSFB 281853Z 04013KT 10SM CLR 16/04 A3026 RMK AO2 SLP248 T01610039
Conditions at: KSFB (SANFORD/ORLANDO , FL, US) observed 1853 UTC 28 November 2014
Temperature: 16.1°C (61°F)
Dewpoint: 3.9°C (39°F) [RH = 44%]
Pressure (altimeter): 30.26 inches Hg (1024.8 mb)
[Sea-level pressure: 1024.8 mb]
Winds: from the NE (40 degrees) at 15 MPH (13 knots; 6.8 m/s)
Visibility: 10 or more miles (16+ km)
Ceiling: at least 12,000 feet AGL
Clouds: sky clear below 12,000 feet AGL
Weather: no significant weather observed at this time
Translated TAF for KSFB
Forecast for: KSFB (SANFORD/ORLANDO , FL, US)
TAF Text: KSFB 281738Z 2818/2918 02012KT P6SM SKC
Forecast period: 1800 UTC 28 November 2014 to 0000 UTC 29 November 2014
Forecast type: FROM: standard forecast or significant change
Winds: from the NNE (20 degrees) at 14 MPH (12 knots; 6.2 m/s)
Visibility: 6 or more miles (10+ km)
Clouds: clear skies
Weather: no significant weather forecast for this period
TAF Text: FM290000 36005KT P6SM SKC
Forecast period: 0000 to 1800 UTC 29 November 2014
Forecast type: FROM: standard forecast or significant change
Winds: from the N (360 degrees) at 6 MPH (5 knots; 2.6 m/s)
Visibility: 6 or more miles (10+ km)
Clouds: clear skies
Weather: no significant weather forecast for this period

Find All Airport Services Find A Hotel Find A Rental Car Find A Golf Course Find A Restaurant $100 Hamburger



FBO's on the Field
FBO Company Facility Photos Services Transportation Aviation Fuel Prices: Prices include tax
Catering Weather Repair Courtesy Rental Type 100LL JetA JetA+ MOGAS 8087
 
StarPort

StarPort logo
Currently rated 3.8 by 7 people
FS:
Last Updated: Nov-26
Login to update fuel prices
SS:
Contact StarPortMore FBO Information
 
Million Air Sanford

Currently rated 3.6 by 3 people
FS:Avfuel
Last Updated: Nov-25
Login to update fuel prices
SS:
Contact Million Air SanfordMore FBO Information
 
Add another FBO Facility Photos Catering Weather Repair Courtesy Rental Type 100LL JetA JetA+ MOGAS 8087
Services Transportation Aviation Fuel Prices: Prices include tax


model-print
model-print
model-print
model-print